FW6724 Weather Reports


Display with metric or nautical units.
time (UTC)temp
F
wind
direction
speed
MPH
gust
MPH
rain 1hr
in
rain 24hr
in
rain mn
in
humidity
%
barometer
mb
20200403080058 57 314 5.0 10.0 0.00 0.78 0.00 71 1017.1
20200403074528 56 311 3.0 7.0 0.00 0.78 0.00 69 1016.9
20200403073042 57 300 6.0 11.0 0.00 0.78 0.00 67 1016.7
20200403071538 56 239 6.0 12.0 0.00 0.78 0.00 68 1016.6
20200403070035 56 275 4.0 13.0 0.00 0.78 0.00 69 1016.3
20200403064536 55 292 5.0 10.0 0.00 0.78 0.00 71 1016.3
20200403063028 55 286 5.0 11.0 0.00 0.78 0.00 70 1016.1
20200403061519 55 244 4.0 8.0 0.00 0.78 0.00 70 1015.9
20200403060024 55 276 3.0 6.0 0.00 0.78 0.00 70 1015.8
20200403054521 55 280 5.0 8.0 0.00 0.78 0.00 70 1015.5
20200403053029 55 251 2.0 5.0 0.00 0.78 0.00 72 1015.4
20200403051542 55 240 1.0 8.0 0.00 0.78 0.00 72 1015.3
20200403050034 54 252 4.0 7.0 0.00 0.78 0.00 74 1015.2
20200403044532 54 298 3.0 8.0 0.00 0.78 0.00 75 1015.0
20200403043040 54 301 3.0 7.0 0.00 0.78 0.00 76 1014.9
20200403041537 54 284 3.0 7.0 0.00 0.78 0.00 76 1014.7
20200403040205 54 281 4.0 8.0 0.00 0.78 0.00 77 1014.4
20200403034523 53 283 3.0 7.0 0.00 0.78 0.00 80 1014.3
20200403033104 53 289 3.0 5.0 0.00 0.78 0.00 79 1014.2
20200403031608 54 275 1.0 4.0 0.00 0.78 0.00 74 1014.2
20200403030022 54 285 2.0 6.0 0.00 0.78 0.00 77 1014.1
20200403024517 53 284 4.0 7.0 0.00 0.78 0.00 79 1014.1
20200403023109 53 258 1.0 3.0 0.00 0.78 0.00 79 1014.1
20200403021548 53 276 2.0 4.0 0.00 0.78 0.00 82 1014.1
20200403020022 53 263 0.0 2.0 0.00 0.78 0.00 83 1014.1
20200403014521 53 263 2.0 3.0 0.00 0.79 0.00 82 1014.2
20200403013024 53 263 2.0 4.0 0.00 0.79 0.00 82 1014.2
20200403011542 53 283 2.0 4.0 0.00 0.79 0.00 83 1014.2
20200403010055 53 300 3.0 5.0 0.00 0.79 0.00 82 1014.3
20200403004536 54 271 2.0 6.0 0.00 0.79 0.00 82 1014.3
20200403003134 54 260 4.0 8.0 0.00 0.79 0.00 81 1014.4
20200403001538 53 309 3.0 8.0 0.00 0.79 0.00 82 1014.5
20200403000042 53 309 3.0 8.0 0.00 0.79 0.00 84 1014.5
20200402234530 53 302 4.0 8.0 0.00 0.88 0.00 84 1014.5
20200402233035 53 287 4.0 10.0 0.00 0.88 0.00 84 1014.4
20200402231520 53 302 3.0 7.0 0.00 0.88 0.00 85 1014.5
20200402230027 53 273 4.0 8.0 0.00 0.88 0.00 85 1014.5
20200402224533 52 286 1.0 4.0 0.00 1.00 0.00 86 1014.6
20200402223027 53 253 1.0 2.0 0.00 1.00 0.00 86 1014.6
20200402221521 52 252 1.0 4.0 0.00 1.00 0.00 86 1014.6
20200402220041 52 285 1.0 3.0 0.00 1.00 0.00 85 1014.7
20200402214520 52 298 1.0 3.0 0.00 1.07 1.00 85 1014.6
20200402213020 52 277 1.0 2.0 0.00 1.07 1.00 86 1014.5
20200402211523 52 277 3.0 6.0 0.00 1.07 1.00 86 1014.4
20200402210036 52 289 1.0 3.0 0.00 1.07 1.00 85 1014.3
20200402204606 52 258 2.0 5.0 0.00 1.08 1.00 82 1014.3
20200402203048 52 257 2.0 4.0 0.00 1.08 1.00 85 1014.3
20200402201613 52 276 0.0 3.0 0.02 1.08 1.00 84 1014.2
20200402200114 53 327 2.0 5.0 0.36 1.08 1.00 80 1014.0
20200402194528 53 261 1.0 4.0 0.65 1.19 1.00 81 1013.8
20200402193029 53 324 2.0 8.0 0.71 1.19 1.00 80 1013.7
20200402191527 52 252 10.0 16.0 0.69 1.17 0.97 81 1013.3
20200402190025 52 263 0.0 8.0 0.33 0.81 0.61 85 1013.6
20200402184601 53 244 4.0 10.0 0.05 0.55 0.33 79 1013.2
20200402183023 56 32 6.0 12.0 0.00 0.49 0.28 70 1012.8
20200402181522 58 110 2.0 8.0 0.00 0.49 0.28 76 1012.6
20200402180027 58 128 3.0 7.0 0.00 0.49 0.28 75 1012.4
20200402174536 58 123 3.0 10.0 0.00 0.49 0.28 75 1012.2
20200402173019 58 138 5.0 10.0 0.00 0.49 0.28 74 1012.0
20200402171547 58 149 4.0 10.0 0.00 0.49 0.28 76 1012.1
20200402170023 58 124 4.0 10.0 0.00 0.49 0.28 76 1012.2
20200402164558 58 132 6.0 11.0 0.00 0.49 0.28 75 1011.9
20200402163027 58 126 6.0 12.0 0.00 0.49 0.28 76 1011.7
20200402161526 58 105 3.0 10.0 0.00 0.49 0.28 77 1011.7
20200402160053 58 69 4.0 12.0 0.00 0.49 0.28 76 1011.6
20200402154529 58 48 4.0 9.0 0.00 0.49 0.28 77 1011.5
20200402153039 58 134 4.0 12.0 0.03 0.49 0.28 76 1011.4
20200402151603 59 112 6.0 14.0 0.07 0.49 0.28 74 1011.4
20200402150056 59 81 5.0 13.0 0.07 0.49 0.28 73 1011.3
20200402144527 59 171 4.0 12.0 0.07 0.49 0.28 74 1011.2
20200402143033 60 117 5.0 15.0 0.03 0.45 0.24 72 1011.2
20200402141545 61 112 8.0 14.0 0.00 0.42 0.21 60 1011.1
20200402140034 64 115 5.0 13.0 0.00 0.42 0.21 56 1010.7
20200402134524 63 165 9.0 16.0 0.00 0.42 0.21 56 1010.8
20200402133057 64 182 6.0 12.0 0.00 0.42 0.21 55 1010.8
20200402131539 64 127 3.0 8.0 0.00 0.42 0.21 54 1010.8
20200402130041 64 43 3.0 8.0 0.00 0.42 0.21 51 1010.7
20200402124532 64 44 2.0 7.0 0.00 0.42 0.21 52 1010.8
20200402123021 65 183 2.0 7.0 0.00 0.42 0.21 52 1011.0
20200402121517 63 106 1.0 5.0 0.00 0.42 0.21 53 1011.1
20200402120044 63 140 3.0 7.0 0.00 0.42 0.21 54 1011.3
20200402114536 62 231 3.0 10.0 0.00 0.42 0.21 56 1011.6
20200402113024 62 103 3.0 8.0 0.00 0.42 0.21 57 1011.7
20200402111522 62 116 3.0 8.0 0.00 0.42 0.21 60 1011.9
20200402110020 61 161 2.0 8.0 0.00 0.42 0.21 63 1012.0
20200402104529 61 191 4.0 9.0 0.00 0.42 0.21 64 1012.2
20200402103116 60 98 1.0 9.0 0.00 0.42 0.21 63 1012.2
20200402101544 60 78 2.0 6.0 0.00 0.42 0.21 65 1012.3
20200402100050 60 82 3.0 7.0 0.00 0.42 0.21 66 1012.3
20200402094520 59 56 2.0 4.0 0.00 0.42 0.21 74 1012.1
20200402093029 57 115 1.0 7.0 0.00 0.42 0.21 76 1012.2
20200402091556 56 144 3.0 7.0 0.00 0.42 0.21 78 1012.3
20200402090033 56 306 1.0 7.0 0.00 0.42 0.21 72 1012.3
20200402084531 54 292 5.0 8.0 0.00 0.42 0.21 75 1012.2
20200402083055 54 283 4.0 8.0 0.00 0.42 0.21 76 1012.1
20200402081520 53 291 5.0 9.0 0.00 0.42 0.21 81 1012.1